»·PEaware :: ASA201 KSNA-KPHX

ASA201 :: KSNA-KPHX

FLIGHT INFORMATION

Flight Status: Arrived
Operator:
Alaska Airlines
More flights by this operator :: More flights under this callsign
Pilot: Andrew C. (28419)
Aircraft: BOEING 737-800
(B738)
More flights by this aircraft type
Origin: KSNA John Wayne-Orange Co
United States
Destination: KPHX Phoenix Sky Harbor Intl
United States
More flights between these airports :: More routes between these airports
Route: +STAYY3 CNERY BLH HYDRR1
File this flight plan on PilotEdge
Remarks: RMK / SIMBRIEF
Altitude:
(Current/Filed)
35,000ft
Speed:
(Current/Filed)
441kts
Departed: 20-Sep-20 09:58 AM
Arrived: 20-Sep-20 10:50 AM
Distance/Time
Traveled:
293nm/0:51
Distance/Time
To Go:
Arrived

Flight Plot

Page will automatically refresh every two minutes.

Flight plan parsing failed; only flown route is shown


Map Options




Map Legend


Flown Route
Filed Route
Departure Airport
Arrival Airport
Navaid (VOR, NDB)
Fix

Horizontal Profiles

Position Reports

Time Latitude Longitude Heading Altitude Ground
Speed
20-Sep-20 09:26 33.675362 -117.864856 118 67ft 0kts
20-Sep-20 09:27 33.675362 -117.864856 118 67ft 0kts
20-Sep-20 09:28 33.675362 -117.864857 118 66ft 0kts
20-Sep-20 09:29 33.675362 -117.864857 118 66ft 0kts
20-Sep-20 09:30 33.675362 -117.864857 118 66ft 0kts
20-Sep-20 09:31 33.675362 -117.864857 118 66ft 0kts
20-Sep-20 09:32 33.675362 -117.864857 118 66ft 0kts
20-Sep-20 09:33 33.675362 -117.864857 118 66ft 0kts
20-Sep-20 09:34 33.675362 -117.864857 118 66ft 0kts
20-Sep-20 09:35 33.675362 -117.864857 118 66ft 0kts
20-Sep-20 09:36 33.675362 -117.864857 118 66ft 0kts
20-Sep-20 09:37 33.675362 -117.864857 118 66ft 0kts
20-Sep-20 09:38 33.675362 -117.864857 118 66ft 0kts
20-Sep-20 09:39 33.675362 -117.864857 118 66ft 0kts
20-Sep-20 09:40 33.675362 -117.864857 118 66ft 0kts
20-Sep-20 09:41 33.675362 -117.864857 118 66ft 0kts
20-Sep-20 09:42 33.675362 -117.864857 118 66ft 0kts
20-Sep-20 09:43 33.675362 -117.864857 118 66ft 0kts
20-Sep-20 09:44 33.675362 -117.864857 118 66ft 0kts
20-Sep-20 09:45 33.675362 -117.864857 118 66ft 0kts
20-Sep-20 09:46 33.675362 -117.864857 118 66ft 0kts
20-Sep-20 09:47 33.675362 -117.864857 118 66ft 0kts
20-Sep-20 09:48 33.675362 -117.864857 118 66ft 0kts
20-Sep-20 09:49 33.675362 -117.864857 118 66ft 0kts
20-Sep-20 09:50 33.675573 -117.865324 118 66ft 0kts
20-Sep-20 09:51 33.675479 -117.865617 26 66ft 0kts
20-Sep-20 09:52 33.675479 -117.865617 26 66ft 0kts
20-Sep-20 09:53 33.677233 -117.864529 26 66ft 19kts
20-Sep-20 09:54 33.681097 -117.864072 297 66ft 9kts
20-Sep-20 09:55 33.681137 -117.864165 297 66ft 0kts
20-Sep-20 09:56 33.681490 -117.865095 243 66ft 2kts
20-Sep-20 09:57 33.660038 -117.878722 206 942ft 169kts
20-Sep-20 09:58 33.601566 -117.893742 193 3149ft 263kts
20-Sep-20 09:59 33.533286 -117.875757 143 6921ft 271kts
20-Sep-20 10:00 33.486383 -117.802062 112 10185ft 294kts
20-Sep-20 10:01 33.487112 -117.694424 68 12326ft 350kts
20-Sep-20 10:02 33.534225 -117.590310 60 12998ft 353kts
20-Sep-20 10:03 33.570875 -117.488385 85 12999ft 351kts
20-Sep-20 10:04 33.549492 -117.374879 111 14872ft 357kts
20-Sep-20 10:05 33.513861 -117.260923 107 17736ft 373kts
20-Sep-20 10:06 33.502924 -117.135366 91 20294ft 387kts
20-Sep-20 10:07 33.500364 -117.003897 91 22451ft 405kts
20-Sep-20 10:08 33.497729 -116.866289 91 24418ft 420kts
20-Sep-20 10:09 33.496168 -116.723984 90 26179ft 434kts
20-Sep-20 10:10 33.494479 -116.577204 91 27819ft 447kts
20-Sep-20 10:11 33.492587 -116.426429 91 29385ft 457kts
20-Sep-20 10:12 33.490143 -116.272405 91 30841ft 466kts
20-Sep-20 10:13 33.487703 -116.116038 91 32304ft 471kts
20-Sep-20 10:14 33.507917 -115.961414 69 33705ft 473kts
20-Sep-20 10:15 33.551292 -115.811923 68 34924ft 477kts
20-Sep-20 10:16 33.594883 -115.662293 68 34982ft 473kts
20-Sep-20 10:17 33.612617 -115.506195 89 34990ft 476kts
20-Sep-20 10:18 33.611275 -115.347798 91 34990ft 476kts
20-Sep-20 10:19 33.608060 -115.188443 91 34990ft 476kts
20-Sep-20 10:20 33.604162 -115.029603 91 34957ft 476kts
20-Sep-20 10:21 33.599939 -114.871404 91 34936ft 474kts
20-Sep-20 10:22 33.584120 -114.714299 102 34510ft 481kts
20-Sep-20 10:23 33.556097 -114.558753 103 31844ft 453kts
20-Sep-20 10:24 33.528767 -114.415501 104 29868ft 431kts
20-Sep-20 10:25 33.502083 -114.278484 104 27895ft 413kts
20-Sep-20 10:26 33.476209 -114.147103 104 25943ft 398kts
20-Sep-20 10:27 33.450898 -114.021010 104 24957ft 385kts
20-Sep-20 10:28 33.425394 -113.895185 104 24954ft 387kts
20-Sep-20 10:29 33.400167 -113.769915 104 24954ft 388kts
20-Sep-20 10:30 33.374858 -113.644434 104 24648ft 381kts
20-Sep-20 10:31 33.350262 -113.523132 104 22727ft 371kts
20-Sep-20 10:32 33.327507 -113.404271 101 20808ft 361kts
20-Sep-20 10:33 33.308137 -113.287458 101 18911ft 352kts
20-Sep-20 10:34 33.290388 -113.174075 100 17088ft 342kts
20-Sep-20 10:35 33.275864 -113.063443 94 15336ft 333kts
20-Sep-20 10:36 33.277780 -112.953957 89 13657ft 325kts
20-Sep-20 10:37 33.280163 -112.847567 86 12056ft 317kts
20-Sep-20 10:38 33.306886 -112.751537 66 10860ft 303kts
20-Sep-20 10:39 33.340213 -112.663818 66 10028ft 280kts
20-Sep-20 10:40 33.372079 -112.579297 66 8734ft 278kts
20-Sep-20 10:41 33.403295 -112.497353 67 8014ft 255kts
20-Sep-20 10:42 33.427587 -112.418731 83 6924ft 244kts
20-Sep-20 10:43 33.428675 -112.339292 91 5821ft 236kts
20-Sep-20 10:44 33.432252 -112.261502 78 4723ft 226kts
20-Sep-20 10:45 33.441182 -112.194705 94 3641ft 186kts
20-Sep-20 10:46 33.441339 -112.134264 92 2884ft 182kts
20-Sep-20 10:47 33.440928 -112.082522 91 2035ft 143kts
20-Sep-20 10:48 33.440887 -112.034371 91 1291ft 144kts
20-Sep-20 10:50 33.440123 -112.007368 183 1145ft 4kts
20-Sep-20 10:51 33.439977 -112.007377 182 1145ft 0kts
20-Sep-20 10:52 33.437588 -112.007337 182 1145ft 17kts
20-Sep-20 10:53 33.436883 -112.008216 269 1145ft 0kts

Navigation Log

Ident Type
Flight plan parsing failed, navigation log unavailable